sensor_id;sensor_type;location;lat;lon;timestamp;P1;durP1;ratioP1;P2;durP2;ratioP2
47539;SDS011;33280;52.152;21.052;2023-11-21T00:01:32;30.93;;;16.70;;
47539;SDS011;33280;52.152;21.052;2023-11-21T00:03:59;31.63;;;16.53;;
47539;SDS011;33280;52.152;21.052;2023-11-21T00:06:28;34.40;;;15.97;;
47539;SDS011;33280;52.152;21.052;2023-11-21T00:08:56;36.60;;;17.87;;
47539;SDS011;33280;52.152;21.052;2023-11-21T00:11:23;31.57;;;16.67;;
47539;SDS011;33280;52.152;21.052;2023-11-21T00:13:51;35.77;;;17.33;;
47539;SDS011;33280;52.152;21.052;2023-11-21T00:16:18;33.43;;;16.77;;
47539;SDS011;33280;52.152;21.052;2023-11-21T00:18:45;38.30;;;18.17;;
47539;SDS011;33280;52.152;21.052;2023-11-21T00:21:13;35.47;;;17.77;;
47539;SDS011;33280;52.152;21.052;2023-11-21T00:23:40;36.30;;;18.17;;
47539;SDS011;33280;52.152;21.052;2023-11-21T00:26:07;35.93;;;17.67;;
47539;SDS011;33280;52.152;21.052;2023-11-21T00:28:34;33.37;;;17.37;;
47539;SDS011;33280;52.152;21.052;2023-11-21T00:31:01;37.03;;;17.80;;
47539;SDS011;33280;52.152;21.052;2023-11-21T00:33:28;38.97;;;18.10;;
47539;SDS011;33280;52.152;21.052;2023-11-21T00:35:55;35.37;;;17.93;;
47539;SDS011;33280;52.152;21.052;2023-11-21T00:38:23;34.83;;;16.87;;
47539;SDS011;33280;52.152;21.052;2023-11-21T00:40:50;38.67;;;18.80;;
47539;SDS011;33280;52.152;21.052;2023-11-21T00:43:19;39.40;;;18.80;;
47539;SDS011;33280;52.152;21.052;2023-11-21T00:45:46;38.33;;;19.13;;
47539;SDS011;33280;52.152;21.052;2023-11-21T00:48:15;38.07;;;18.03;;
47539;SDS011;33280;52.152;21.052;2023-11-21T00:50:42;40.83;;;19.20;;
47539;SDS011;33280;52.152;21.052;2023-11-21T00:53:09;37.67;;;18.77;;
47539;SDS011;33280;52.152;21.052;2023-11-21T00:55:37;37.57;;;18.50;;
47539;SDS011;33280;52.152;21.052;2023-11-21T00:58:07;37.87;;;18.90;;
47539;SDS011;33280;52.152;21.052;2023-11-21T01:00:34;39.53;;;18.30;;
47539;SDS011;33280;52.152;21.052;2023-11-21T01:03:00;38.13;;;19.40;;
47539;SDS011;33280;52.152;21.052;2023-11-21T01:05:28;38.47;;;17.90;;
47539;SDS011;33280;52.152;21.052;2023-11-21T01:07:56;40.57;;;18.90;;
47539;SDS011;33280;52.152;21.052;2023-11-21T01:10:23;37.77;;;18.53;;
47539;SDS011;33280;52.152;21.052;2023-11-21T01:12:51;38.10;;;18.30;;
47539;SDS011;33280;52.152;21.052;2023-11-21T01:15:18;34.83;;;17.27;;
47539;SDS011;33280;52.152;21.052;2023-11-21T01:17:45;35.97;;;17.77;;
47539;SDS011;33280;52.152;21.052;2023-11-21T01:20:12;39.33;;;18.47;;
47539;SDS011;33280;52.152;21.052;2023-11-21T01:22:40;37.40;;;18.37;;
47539;SDS011;33280;52.152;21.052;2023-11-21T01:25:08;40.10;;;18.77;;
47539;SDS011;33280;52.152;21.052;2023-11-21T01:27:36;41.53;;;19.37;;
47539;SDS011;33280;52.152;21.052;2023-11-21T01:30:05;38.63;;;18.80;;
47539;SDS011;33280;52.152;21.052;2023-11-21T01:32:34;37.90;;;18.27;;
47539;SDS011;33280;52.152;21.052;2023-11-21T01:35:01;42.17;;;19.80;;
47539;SDS011;33280;52.152;21.052;2023-11-21T01:37:28;40.40;;;19.03;;
47539;SDS011;33280;52.152;21.052;2023-11-21T01:39:56;40.67;;;19.00;;
47539;SDS011;33280;52.152;21.052;2023-11-21T01:42:24;42.07;;;19.17;;
47539;SDS011;33280;52.152;21.052;2023-11-21T01:44:51;36.27;;;17.97;;
47539;SDS011;33280;52.152;21.052;2023-11-21T01:47:18;43.37;;;19.47;;
47539;SDS011;33280;52.152;21.052;2023-11-21T01:49:45;40.80;;;18.93;;
47539;SDS011;33280;52.152;21.052;2023-11-21T01:52:14;38.37;;;19.10;;
47539;SDS011;33280;52.152;21.052;2023-11-21T01:54:41;38.27;;;18.70;;
47539;SDS011;33280;52.152;21.052;2023-11-21T01:57:09;38.53;;;19.07;;
47539;SDS011;33280;52.152;21.052;2023-11-21T01:59:36;39.83;;;19.20;;
47539;SDS011;33280;52.152;21.052;2023-11-21T02:02:08;39.07;;;19.00;;
47539;SDS011;33280;52.152;21.052;2023-11-21T02:04:36;41.10;;;19.63;;
47539;SDS011;33280;52.152;21.052;2023-11-21T02:07:04;39.17;;;19.13;;
47539;SDS011;33280;52.152;21.052;2023-11-21T02:09:34;39.77;;;19.40;;
47539;SDS011;33280;52.152;21.052;2023-11-21T02:12:04;38.30;;;19.43;;
47539;SDS011;33280;52.152;21.052;2023-11-21T02:14:31;43.13;;;20.03;;
47539;SDS011;33280;52.152;21.052;2023-11-21T02:16:59;38.00;;;19.00;;
47539;SDS011;33280;52.152;21.052;2023-11-21T02:19:27;38.90;;;19.07;;
47539;SDS011;33280;52.152;21.052;2023-11-21T02:21:57;38.37;;;19.10;;
47539;SDS011;33280;52.152;21.052;2023-11-21T02:24:31;37.13;;;18.20;;
47539;SDS011;33280;52.152;21.052;2023-11-21T02:26:58;37.33;;;18.80;;
47539;SDS011;33280;52.152;21.052;2023-11-21T02:29:25;38.33;;;18.97;;
47539;SDS011;33280;52.152;21.052;2023-11-21T02:31:55;36.53;;;18.47;;
47539;SDS011;33280;52.152;21.052;2023-11-21T02:34:23;36.70;;;18.80;;
47539;SDS011;33280;52.152;21.052;2023-11-21T02:36:52;38.43;;;18.90;;
47539;SDS011;33280;52.152;21.052;2023-11-21T02:39:20;34.80;;;18.03;;
47539;SDS011;33280;52.152;21.052;2023-11-21T02:41:51;37.63;;;18.50;;
47539;SDS011;33280;52.152;21.052;2023-11-21T02:44:17;37.03;;;18.10;;
47539;SDS011;33280;52.152;21.052;2023-11-21T02:46:45;37.80;;;18.73;;
47539;SDS011;33280;52.152;21.052;2023-11-21T02:49:13;37.80;;;18.90;;
47539;SDS011;33280;52.152;21.052;2023-11-21T02:51:41;33.87;;;17.93;;
47539;SDS011;33280;52.152;21.052;2023-11-21T02:54:08;37.47;;;18.37;;
47539;SDS011;33280;52.152;21.052;2023-11-21T02:56:35;36.43;;;18.33;;
47539;SDS011;33280;52.152;21.052;2023-11-21T02:59:02;35.17;;;17.20;;
47539;SDS011;33280;52.152;21.052;2023-11-21T03:01:29;33.77;;;17.90;;
47539;SDS011;33280;52.152;21.052;2023-11-21T03:03:56;36.73;;;18.30;;
47539;SDS011;33280;52.152;21.052;2023-11-21T03:06:24;35.77;;;17.40;;
47539;SDS011;33280;52.152;21.052;2023-11-21T03:08:51;39.07;;;18.40;;
47539;SDS011;33280;52.152;21.052;2023-11-21T03:11:19;35.53;;;18.23;;
47539;SDS011;33280;52.152;21.052;2023-11-21T03:13:46;37.10;;;17.80;;
47539;SDS011;33280;52.152;21.052;2023-11-21T03:16:15;39.63;;;18.43;;
47539;SDS011;33280;52.152;21.052;2023-11-21T03:18:43;34.17;;;17.37;;
47539;SDS011;33280;52.152;21.052;2023-11-21T03:21:11;35.13;;;16.93;;
47539;SDS011;33280;52.152;21.052;2023-11-21T03:23:39;37.20;;;18.10;;
47539;SDS011;33280;52.152;21.052;2023-11-21T03:26:06;33.63;;;17.00;;
47539;SDS011;33280;52.152;21.052;2023-11-21T03:28:39;35.77;;;17.60;;
47539;SDS011;33280;52.152;21.052;2023-11-21T03:31:06;36.47;;;17.57;;
47539;SDS011;33280;52.152;21.052;2023-11-21T03:33:33;37.40;;;17.33;;
47539;SDS011;33280;52.152;21.052;2023-11-21T03:36:01;36.73;;;17.13;;
47539;SDS011;33280;52.152;21.052;2023-11-21T03:38:30;36.80;;;17.13;;
47539;SDS011;33280;52.152;21.052;2023-11-21T03:40:57;34.20;;;17.50;;
47539;SDS011;33280;52.152;21.052;2023-11-21T03:43:24;36.77;;;17.10;;
47539;SDS011;33280;52.152;21.052;2023-11-21T03:45:52;36.87;;;17.90;;
47539;SDS011;33280;52.152;21.052;2023-11-21T03:48:19;36.10;;;17.07;;
47539;SDS011;33280;52.152;21.052;2023-11-21T03:50:46;34.23;;;15.60;;
47539;SDS011;33280;52.152;21.052;2023-11-21T03:53:13;34.43;;;16.63;;
47539;SDS011;33280;52.152;21.052;2023-11-21T03:55:41;35.93;;;15.77;;
47539;SDS011;33280;52.152;21.052;2023-11-21T03:58:08;35.30;;;16.60;;
47539;SDS011;33280;52.152;21.052;2023-11-21T04:00:35;33.13;;;16.97;;
47539;SDS011;33280;52.152;21.052;2023-11-21T04:03:02;34.93;;;16.90;;
47539;SDS011;33280;52.152;21.052;2023-11-21T04:05:29;36.77;;;16.60;;
47539;SDS011;33280;52.152;21.052;2023-11-21T04:07:57;35.40;;;16.83;;
47539;SDS011;33280;52.152;21.052;2023-11-21T04:10:24;34.73;;;17.27;;
47539;SDS011;33280;52.152;21.052;2023-11-21T04:12:52;34.33;;;17.17;;
47539;SDS011;33280;52.152;21.052;2023-11-21T04:15:19;33.07;;;16.60;;
47539;SDS011;33280;52.152;21.052;2023-11-21T04:17:46;39.20;;;16.80;;
47539;SDS011;33280;52.152;21.052;2023-11-21T04:20:13;32.07;;;15.90;;
47539;SDS011;33280;52.152;21.052;2023-11-21T04:22:40;33.83;;;16.73;;
47539;SDS011;33280;52.152;21.052;2023-11-21T04:25:10;34.67;;;16.57;;
47539;SDS011;33280;52.152;21.052;2023-11-21T04:27:40;34.17;;;16.23;;
47539;SDS011;33280;52.152;21.052;2023-11-21T04:30:10;34.47;;;16.60;;
47539;SDS011;33280;52.152;21.052;2023-11-21T04:32:38;35.03;;;16.43;;
47539;SDS011;33280;52.152;21.052;2023-11-21T04:35:06;33.47;;;16.10;;
47539;SDS011;33280;52.152;21.052;2023-11-21T04:37:35;29.93;;;14.93;;
47539;SDS011;33280;52.152;21.052;2023-11-21T04:40:02;31.97;;;14.90;;
47539;SDS011;33280;52.152;21.052;2023-11-21T04:42:36;26.87;;;13.83;;
47539;SDS011;33280;52.152;21.052;2023-11-21T04:45:04;31.83;;;14.80;;
47539;SDS011;33280;52.152;21.052;2023-11-21T04:47:35;27.10;;;13.80;;
47539;SDS011;33280;52.152;21.052;2023-11-21T04:50:03;32.37;;;15.27;;
47539;SDS011;33280;52.152;21.052;2023-11-21T04:52:32;28.23;;;12.73;;
47539;SDS011;33280;52.152;21.052;2023-11-21T04:54:59;29.13;;;13.80;;
47539;SDS011;33280;52.152;21.052;2023-11-21T04:57:28;24.77;;;13.27;;
47539;SDS011;33280;52.152;21.052;2023-11-21T04:59:55;26.97;;;13.23;;
47539;SDS011;33280;52.152;21.052;2023-11-21T05:02:22;23.73;;;12.93;;
47539;SDS011;33280;52.152;21.052;2023-11-21T05:05:01;24.20;;;13.20;;
47539;SDS011;33280;52.152;21.052;2023-11-21T05:07:29;24.63;;;12.50;;
47539;SDS011;33280;52.152;21.052;2023-11-21T05:09:58;27.13;;;13.03;;
47539;SDS011;33280;52.152;21.052;2023-11-21T05:12:25;24.40;;;13.13;;
47539;SDS011;33280;52.152;21.052;2023-11-21T05:14:52;27.23;;;12.97;;
47539;SDS011;33280;52.152;21.052;2023-11-21T05:17:19;25.03;;;13.40;;
47539;SDS011;33280;52.152;21.052;2023-11-21T05:19:46;27.77;;;13.57;;
47539;SDS011;33280;52.152;21.052;2023-11-21T05:22:15;25.73;;;13.50;;
47539;SDS011;33280;52.152;21.052;2023-11-21T05:24:43;27.93;;;13.83;;
47539;SDS011;33280;52.152;21.052;2023-11-21T05:27:10;25.13;;;13.10;;
47539;SDS011;33280;52.152;21.052;2023-11-21T05:29:37;25.70;;;12.97;;
47539;SDS011;33280;52.152;21.052;2023-11-21T05:32:04;29.77;;;13.87;;
47539;SDS011;33280;52.152;21.052;2023-11-21T05:34:32;27.67;;;13.47;;
47539;SDS011;33280;52.152;21.052;2023-11-21T05:36:59;24.33;;;12.93;;
47539;SDS011;33280;52.152;21.052;2023-11-21T05:39:26;25.27;;;12.63;;
47539;SDS011;33280;52.152;21.052;2023-11-21T05:41:54;27.00;;;13.50;;
47539;SDS011;33280;52.152;21.052;2023-11-21T05:44:21;24.87;;;13.07;;
47539;SDS011;33280;52.152;21.052;2023-11-21T05:46:49;25.23;;;13.20;;
47539;SDS011;33280;52.152;21.052;2023-11-21T05:49:16;23.00;;;12.90;;
47539;SDS011;33280;52.152;21.052;2023-11-21T05:51:46;24.13;;;13.00;;
47539;SDS011;33280;52.152;21.052;2023-11-21T05:54:14;26.60;;;12.60;;
47539;SDS011;33280;52.152;21.052;2023-11-21T05:56:41;26.30;;;12.53;;
47539;SDS011;33280;52.152;21.052;2023-11-21T05:59:08;21.77;;;11.90;;
47539;SDS011;33280;52.152;21.052;2023-11-21T06:01:35;22.77;;;12.37;;
47539;SDS011;33280;52.152;21.052;2023-11-21T06:04:05;23.87;;;12.17;;
47539;SDS011;33280;52.152;21.052;2023-11-21T06:06:35;22.87;;;11.93;;
47539;SDS011;33280;52.152;21.052;2023-11-21T06:09:02;23.13;;;12.00;;
47539;SDS011;33280;52.152;21.052;2023-11-21T06:11:30;18.40;;;10.80;;
47539;SDS011;33280;52.152;21.052;2023-11-21T06:13:57;20.77;;;11.70;;
47539;SDS011;33280;52.152;21.052;2023-11-21T06:16:25;19.50;;;10.80;;
47539;SDS011;33280;52.152;21.052;2023-11-21T06:18:52;20.33;;;11.20;;
47539;SDS011;33280;52.152;21.052;2023-11-21T06:21:19;20.07;;;11.00;;
47539;SDS011;33280;52.152;21.052;2023-11-21T06:23:46;20.90;;;10.80;;
47539;SDS011;33280;52.152;21.052;2023-11-21T06:26:17;20.27;;;10.50;;
47539;SDS011;33280;52.152;21.052;2023-11-21T06:28:45;22.03;;;10.87;;
47539;SDS011;33280;52.152;21.052;2023-11-21T06:31:12;21.57;;;11.60;;
47539;SDS011;33280;52.152;21.052;2023-11-21T06:33:40;20.07;;;10.73;;
47539;SDS011;33280;52.152;21.052;2023-11-21T06:36:08;19.17;;;10.97;;
47539;SDS011;33280;52.152;21.052;2023-11-21T06:38:37;21.47;;;9.97;;
47539;SDS011;33280;52.152;21.052;2023-11-21T06:41:05;21.10;;;11.00;;
47539;SDS011;33280;52.152;21.052;2023-11-21T06:43:33;17.77;;;10.23;;
47539;SDS011;33280;52.152;21.052;2023-11-21T06:46:01;18.73;;;9.87;;
47539;SDS011;33280;52.152;21.052;2023-11-21T06:48:28;23.03;;;11.13;;
47539;SDS011;33280;52.152;21.052;2023-11-21T06:50:56;17.50;;;10.07;;
47539;SDS011;33280;52.152;21.052;2023-11-21T06:53:23;19.17;;;10.53;;
47539;SDS011;33280;52.152;21.052;2023-11-21T06:55:51;18.30;;;10.20;;
47539;SDS011;33280;52.152;21.052;2023-11-21T06:58:18;19.83;;;10.20;;
47539;SDS011;33280;52.152;21.052;2023-11-21T07:00:46;20.13;;;10.43;;
47539;SDS011;33280;52.152;21.052;2023-11-21T07:03:15;17.10;;;10.33;;
47539;SDS011;33280;52.152;21.052;2023-11-21T07:05:45;17.10;;;10.07;;
47539;SDS011;33280;52.152;21.052;2023-11-21T07:08:12;18.67;;;10.30;;
47539;SDS011;33280;52.152;21.052;2023-11-21T07:10:41;20.47;;;10.20;;
47539;SDS011;33280;52.152;21.052;2023-11-21T07:13:08;17.47;;;10.10;;
47539;SDS011;33280;52.152;21.052;2023-11-21T07:15:38;18.20;;;10.30;;
47539;SDS011;33280;52.152;21.052;2023-11-21T07:18:06;20.40;;;10.00;;
47539;SDS011;33280;52.152;21.052;2023-11-21T07:20:34;18.70;;;10.53;;
47539;SDS011;33280;52.152;21.052;2023-11-21T07:23:01;19.13;;;10.00;;
47539;SDS011;33280;52.152;21.052;2023-11-21T07:25:31;21.40;;;10.70;;
47539;SDS011;33280;52.152;21.052;2023-11-21T07:28:00;21.63;;;10.70;;
47539;SDS011;33280;52.152;21.052;2023-11-21T07:30:27;21.50;;;10.70;;
47539;SDS011;33280;52.152;21.052;2023-11-21T07:32:54;19.57;;;10.60;;
47539;SDS011;33280;52.152;21.052;2023-11-21T07:35:21;19.00;;;10.83;;
47539;SDS011;33280;52.152;21.052;2023-11-21T07:37:49;21.80;;;11.23;;
47539;SDS011;33280;52.152;21.052;2023-11-21T07:40:16;19.97;;;11.07;;
47539;SDS011;33280;52.152;21.052;2023-11-21T07:42:43;21.57;;;11.03;;
47539;SDS011;33280;52.152;21.052;2023-11-21T07:45:10;22.57;;;11.40;;
47539;SDS011;33280;52.152;21.052;2023-11-21T07:47:38;21.53;;;11.03;;
47539;SDS011;33280;52.152;21.052;2023-11-21T07:50:06;20.60;;;11.30;;
47539;SDS011;33280;52.152;21.052;2023-11-21T07:52:34;24.03;;;11.90;;
47539;SDS011;33280;52.152;21.052;2023-11-21T07:55:01;23.47;;;11.33;;
47539;SDS011;33280;52.152;21.052;2023-11-21T07:57:29;20.90;;;11.73;;
47539;SDS011;33280;52.152;21.052;2023-11-21T07:59:56;24.60;;;11.77;;
47539;SDS011;33280;52.152;21.052;2023-11-21T08:02:23;22.17;;;11.67;;
47539;SDS011;33280;52.152;21.052;2023-11-21T08:04:50;21.97;;;11.60;;
47539;SDS011;33280;52.152;21.052;2023-11-21T08:07:18;23.70;;;11.53;;
47539;SDS011;33280;52.152;21.052;2023-11-21T08:09:45;21.60;;;11.23;;
47539;SDS011;33280;52.152;21.052;2023-11-21T08:12:13;21.13;;;11.07;;
47539;SDS011;33280;52.152;21.052;2023-11-21T08:14:43;24.43;;;12.27;;
47539;SDS011;33280;52.152;21.052;2023-11-21T08:17:11;22.30;;;11.53;;
47539;SDS011;33280;52.152;21.052;2023-11-21T08:19:40;25.97;;;12.70;;
47539;SDS011;33280;52.152;21.052;2023-11-21T08:22:08;22.20;;;11.97;;
47539;SDS011;33280;52.152;21.052;2023-11-21T08:24:35;22.97;;;11.90;;
47539;SDS011;33280;52.152;21.052;2023-11-21T08:27:03;23.53;;;12.60;;
47539;SDS011;33280;52.152;21.052;2023-11-21T08:29:31;22.87;;;11.80;;
47539;SDS011;33280;52.152;21.052;2023-11-21T08:31:58;21.30;;;11.57;;
47539;SDS011;33280;52.152;21.052;2023-11-21T08:34:26;22.83;;;12.27;;
47539;SDS011;33280;52.152;21.052;2023-11-21T08:36:54;21.47;;;11.13;;
47539;SDS011;33280;52.152;21.052;2023-11-21T08:39:23;22.17;;;11.27;;
47539;SDS011;33280;52.152;21.052;2023-11-21T08:41:50;21.10;;;11.33;;
47539;SDS011;33280;52.152;21.052;2023-11-21T08:44:17;21.87;;;11.60;;
47539;SDS011;33280;52.152;21.052;2023-11-21T08:46:45;21.00;;;11.43;;
47539;SDS011;33280;52.152;21.052;2023-11-21T08:49:13;18.83;;;11.00;;
47539;SDS011;33280;52.152;21.052;2023-11-21T08:51:41;20.67;;;11.37;;
47539;SDS011;33280;52.152;21.052;2023-11-21T08:54:10;21.90;;;11.43;;
47539;SDS011;33280;52.152;21.052;2023-11-21T08:56:38;35.53;;;17.53;;
47539;SDS011;33280;52.152;21.052;2023-11-21T08:59:08;28.33;;;13.07;;
47539;SDS011;33280;52.152;21.052;2023-11-21T09:01:38;20.97;;;11.57;;
47539;SDS011;33280;52.152;21.052;2023-11-21T09:04:05;21.30;;;12.13;;
47539;SDS011;33280;52.152;21.052;2023-11-21T09:06:35;22.50;;;12.03;;
47539;SDS011;33280;52.152;21.052;2023-11-21T09:09:02;25.97;;;12.07;;
47539;SDS011;33280;52.152;21.052;2023-11-21T09:11:32;22.57;;;12.00;;
47539;SDS011;33280;52.152;21.052;2023-11-21T09:14:00;23.07;;;12.30;;
47539;SDS011;33280;52.152;21.052;2023-11-21T09:16:28;24.43;;;12.30;;
47539;SDS011;33280;52.152;21.052;2023-11-21T09:18:55;22.67;;;12.70;;
47539;SDS011;33280;52.152;21.052;2023-11-21T09:21:25;23.30;;;12.20;;
47539;SDS011;33280;52.152;21.052;2023-11-21T09:23:52;22.10;;;12.00;;
47539;SDS011;33280;52.152;21.052;2023-11-21T09:26:19;23.67;;;12.80;;
47539;SDS011;33280;52.152;21.052;2023-11-21T09:28:46;23.60;;;12.27;;
47539;SDS011;33280;52.152;21.052;2023-11-21T09:31:14;28.93;;;13.13;;
47539;SDS011;33280;52.152;21.052;2023-11-21T09:33:45;27.70;;;13.20;;
47539;SDS011;33280;52.152;21.052;2023-11-21T09:36:14;28.10;;;12.23;;
47539;SDS011;33280;52.152;21.052;2023-11-21T09:38:41;24.90;;;12.77;;
47539;SDS011;33280;52.152;21.052;2023-11-21T09:41:11;22.70;;;12.70;;
47539;SDS011;33280;52.152;21.052;2023-11-21T09:43:47;22.83;;;12.10;;
47539;SDS011;33280;52.152;21.052;2023-11-21T09:46:21;23.43;;;11.83;;
47539;SDS011;33280;52.152;21.052;2023-11-21T09:48:52;23.83;;;12.47;;
47539;SDS011;33280;52.152;21.052;2023-11-21T09:51:19;22.87;;;12.97;;
47539;SDS011;33280;52.152;21.052;2023-11-21T09:53:49;22.83;;;11.93;;
47539;SDS011;33280;52.152;21.052;2023-11-21T09:56:18;26.40;;;13.63;;
47539;SDS011;33280;52.152;21.052;2023-11-21T09:58:50;23.60;;;12.50;;
47539;SDS011;33280;52.152;21.052;2023-11-21T10:01:19;22.63;;;12.10;;
47539;SDS011;33280;52.152;21.052;2023-11-21T10:03:49;23.10;;;12.10;;
47539;SDS011;33280;52.152;21.052;2023-11-21T10:06:17;24.87;;;12.23;;
47539;SDS011;33280;52.152;21.052;2023-11-21T10:08:45;21.47;;;12.37;;
47539;SDS011;33280;52.152;21.052;2023-11-21T10:11:21;24.53;;;12.73;;
47539;SDS011;33280;52.152;21.052;2023-11-21T10:13:55;22.70;;;12.83;;
47539;SDS011;33280;52.152;21.052;2023-11-21T10:16:25;21.07;;;11.93;;
47539;SDS011;33280;52.152;21.052;2023-11-21T10:18:54;24.27;;;12.40;;
47539;SDS011;33280;52.152;21.052;2023-11-21T10:21:37;22.43;;;12.03;;
47539;SDS011;33280;52.152;21.052;2023-11-21T10:24:05;26.37;;;12.87;;
47539;SDS011;33280;52.152;21.052;2023-11-21T10:26:33;21.97;;;12.67;;
47539;SDS011;33280;52.152;21.052;2023-11-21T10:29:16;25.57;;;12.77;;
47539;SDS011;33280;52.152;21.052;2023-11-21T10:31:45;23.73;;;13.00;;
47539;SDS011;33280;52.152;21.052;2023-11-21T10:34:18;25.23;;;13.37;;
47539;SDS011;33280;52.152;21.052;2023-11-21T10:36:46;24.93;;;12.80;;
47539;SDS011;33280;52.152;21.052;2023-11-21T10:39:14;23.27;;;11.77;;
47539;SDS011;33280;52.152;21.052;2023-11-21T10:41:49;24.70;;;13.10;;
47539;SDS011;33280;52.152;21.052;2023-11-21T10:44:17;22.53;;;13.10;;
47539;SDS011;33280;52.152;21.052;2023-11-21T10:46:51;21.20;;;12.33;;
47539;SDS011;33280;52.152;21.052;2023-11-21T10:49:27;23.63;;;13.37;;
47539;SDS011;33280;52.152;21.052;2023-11-21T10:51:54;23.50;;;12.80;;
47539;SDS011;33280;52.152;21.052;2023-11-21T10:54:23;24.00;;;13.70;;
47539;SDS011;33280;52.152;21.052;2023-11-21T10:56:58;23.33;;;12.20;;
47539;SDS011;33280;52.152;21.052;2023-11-21T10:59:28;22.43;;;12.10;;
47539;SDS011;33280;52.152;21.052;2023-11-21T11:01:58;24.53;;;12.70;;
47539;SDS011;33280;52.152;21.052;2023-11-21T11:04:29;27.13;;;12.90;;
47539;SDS011;33280;52.152;21.052;2023-11-21T11:06:57;19.70;;;11.63;;
47539;SDS011;33280;52.152;21.052;2023-11-21T11:09:31;21.97;;;12.27;;
47539;SDS011;33280;52.152;21.052;2023-11-21T11:12:02;23.43;;;12.13;;
47539;SDS011;33280;52.152;21.052;2023-11-21T11:14:31;24.27;;;12.13;;
47539;SDS011;33280;52.152;21.052;2023-11-21T11:16:59;24.67;;;12.27;;
47539;SDS011;33280;52.152;21.052;2023-11-21T11:19:28;21.03;;;11.23;;
47539;SDS011;33280;52.152;21.052;2023-11-21T11:22:32;25.30;;;12.60;;
47539;SDS011;33280;52.152;21.052;2023-11-21T11:25:05;21.13;;;11.27;;
47539;SDS011;33280;52.152;21.052;2023-11-21T11:27:44;23.10;;;11.83;;
47539;SDS011;33280;52.152;21.052;2023-11-21T11:30:45;21.67;;;12.10;;
47539;SDS011;33280;52.152;21.052;2023-11-21T11:33:29;23.73;;;11.53;;
47539;SDS011;33280;52.152;21.052;2023-11-21T11:36:03;20.90;;;11.30;;
47539;SDS011;33280;52.152;21.052;2023-11-21T11:38:35;26.97;;;12.43;;
47539;SDS011;33280;52.152;21.052;2023-11-21T11:41:02;20.90;;;11.83;;
47539;SDS011;33280;52.152;21.052;2023-11-21T11:43:31;25.33;;;13.10;;
47539;SDS011;33280;52.152;21.052;2023-11-21T11:46:11;21.70;;;12.20;;
47539;SDS011;33280;52.152;21.052;2023-11-21T11:48:42;23.90;;;12.57;;
47539;SDS011;33280;52.152;21.052;2023-11-21T11:51:15;24.70;;;13.07;;
47539;SDS011;33280;52.152;21.052;2023-11-21T11:53:47;24.00;;;13.03;;
47539;SDS011;33280;52.152;21.052;2023-11-21T11:56:24;23.23;;;13.13;;
47539;SDS011;33280;52.152;21.052;2023-11-21T11:58:57;25.03;;;12.83;;
47539;SDS011;33280;52.152;21.052;2023-11-21T12:01:26;24.27;;;12.50;;
47539;SDS011;33280;52.152;21.052;2023-11-21T12:06:45;26.10;;;12.77;;
47539;SDS011;33280;52.152;21.052;2023-11-21T12:09:21;23.07;;;12.70;;
47539;SDS011;33280;52.152;21.052;2023-11-21T12:11:50;26.47;;;13.17;;
47539;SDS011;33280;52.152;21.052;2023-11-21T12:14:18;23.57;;;12.23;;
47539;SDS011;33280;52.152;21.052;2023-11-21T12:16:45;28.33;;;14.07;;
47539;SDS011;33280;52.152;21.052;2023-11-21T12:19:12;25.20;;;13.27;;
47539;SDS011;33280;52.152;21.052;2023-11-21T12:21:39;23.50;;;12.77;;
47539;SDS011;33280;52.152;21.052;2023-11-21T12:24:07;22.30;;;12.17;;
47539;SDS011;33280;52.152;21.052;2023-11-21T12:26:40;23.70;;;12.40;;
47539;SDS011;33280;52.152;21.052;2023-11-21T12:29:08;25.90;;;12.77;;
47539;SDS011;33280;52.152;21.052;2023-11-21T12:31:35;24.50;;;13.00;;
47539;SDS011;33280;52.152;21.052;2023-11-21T12:34:02;24.37;;;13.23;;
47539;SDS011;33280;52.152;21.052;2023-11-21T12:36:31;27.90;;;13.50;;
47539;SDS011;33280;52.152;21.052;2023-11-21T12:38:58;24.20;;;13.03;;
47539;SDS011;33280;52.152;21.052;2023-11-21T12:41:25;22.83;;;12.70;;
47539;SDS011;33280;52.152;21.052;2023-11-21T12:43:52;24.97;;;13.40;;
47539;SDS011;33280;52.152;21.052;2023-11-21T12:46:19;24.87;;;13.40;;
47539;SDS011;33280;52.152;21.052;2023-11-21T12:48:47;26.53;;;13.30;;
47539;SDS011;33280;52.152;21.052;2023-11-21T12:51:14;24.97;;;13.07;;
47539;SDS011;33280;52.152;21.052;2023-11-21T12:53:42;23.03;;;12.90;;
47539;SDS011;33280;52.152;21.052;2023-11-21T12:58:38;25.30;;;12.80;;
47539;SDS011;33280;52.152;21.052;2023-11-21T13:01:06;24.37;;;12.90;;
47539;SDS011;33280;52.152;21.052;2023-11-21T13:03:50;24.93;;;13.00;;
47539;SDS011;33280;52.152;21.052;2023-11-21T13:06:18;23.80;;;12.77;;
47539;SDS011;33280;52.152;21.052;2023-11-21T13:08:46;23.40;;;12.83;;
47539;SDS011;33280;52.152;21.052;2023-11-21T13:11:13;28.07;;;13.13;;
47539;SDS011;33280;52.152;21.052;2023-11-21T13:13:42;27.47;;;13.43;;
47539;SDS011;33280;52.152;21.052;2023-11-21T13:16:10;23.43;;;11.83;;
47539;SDS011;33280;52.152;21.052;2023-11-21T13:18:38;22.43;;;12.57;;
47539;SDS011;33280;52.152;21.052;2023-11-21T13:21:08;23.57;;;12.43;;
47539;SDS011;33280;52.152;21.052;2023-11-21T13:23:41;24.17;;;12.47;;
47539;SDS011;33280;52.152;21.052;2023-11-21T13:26:09;24.87;;;12.93;;
47539;SDS011;33280;52.152;21.052;2023-11-21T13:28:36;23.77;;;12.47;;
47539;SDS011;33280;52.152;21.052;2023-11-21T13:31:05;25.70;;;12.77;;
47539;SDS011;33280;52.152;21.052;2023-11-21T13:33:49;27.67;;;13.43;;
47539;SDS011;33280;52.152;21.052;2023-11-21T13:36:31;24.80;;;13.80;;
47539;SDS011;33280;52.152;21.052;2023-11-21T13:39:02;25.27;;;12.80;;
47539;SDS011;33280;52.152;21.052;2023-11-21T13:41:35;22.80;;;12.90;;
47539;SDS011;33280;52.152;21.052;2023-11-21T13:44:05;25.40;;;13.30;;
47539;SDS011;33280;52.152;21.052;2023-11-21T13:46:53;22.23;;;12.00;;
47539;SDS011;33280;52.152;21.052;2023-11-21T13:49:23;22.90;;;12.30;;
47539;SDS011;33280;52.152;21.052;2023-11-21T13:51:51;21.83;;;12.13;;
47539;SDS011;33280;52.152;21.052;2023-11-21T13:54:21;22.63;;;12.33;;
47539;SDS011;33280;52.152;21.052;2023-11-21T13:56:52;24.67;;;13.17;;
47539;SDS011;33280;52.152;21.052;2023-11-21T13:59:19;26.93;;;13.90;;
47539;SDS011;33280;52.152;21.052;2023-11-21T14:01:55;23.53;;;12.53;;
47539;SDS011;33280;52.152;21.052;2023-11-21T14:04:23;23.60;;;13.27;;
47539;SDS011;33280;52.152;21.052;2023-11-21T14:06:57;26.67;;;13.53;;
47539;SDS011;33280;52.152;21.052;2023-11-21T14:09:27;24.47;;;12.97;;
47539;SDS011;33280;52.152;21.052;2023-11-21T14:12:10;25.83;;;13.07;;
47539;SDS011;33280;52.152;21.052;2023-11-21T14:14:39;25.77;;;13.27;;
47539;SDS011;33280;52.152;21.052;2023-11-21T14:17:07;25.27;;;13.00;;
47539;SDS011;33280;52.152;21.052;2023-11-21T14:19:34;29.60;;;13.87;;
47539;SDS011;33280;52.152;21.052;2023-11-21T14:22:05;24.83;;;14.03;;
47539;SDS011;33280;52.152;21.052;2023-11-21T14:24:36;25.00;;;14.13;;